sensor_id;sensor_type;location;lat;lon;timestamp;temperature;humidity
38118;DHT22;23928;47.562;7.508;2022-08-19T00:00:19;19.30;99.90
38118;DHT22;23928;47.562;7.508;2022-08-19T00:02:45;19.30;99.90
38118;DHT22;23928;47.562;7.508;2022-08-19T00:05:13;19.20;99.90
38118;DHT22;23928;47.562;7.508;2022-08-19T00:07:41;19.30;99.90
38118;DHT22;23928;47.562;7.508;2022-08-19T00:10:13;19.20;99.90
38118;DHT22;23928;47.562;7.508;2022-08-19T00:12:39;19.10;99.90
38118;DHT22;23928;47.562;7.508;2022-08-19T00:15:08;19.20;99.90
38118;DHT22;23928;47.562;7.508;2022-08-19T00:17:40;19.20;99.90
38118;DHT22;23928;47.562;7.508;2022-08-19T00:20:07;19.10;99.90
38118;DHT22;23928;47.562;7.508;2022-08-19T00:22:33;19.00;99.90
38118;DHT22;23928;47.562;7.508;2022-08-19T00:24:59;19.20;99.90
38118;DHT22;23928;47.562;7.508;2022-08-19T00:27:24;19.20;99.90
38118;DHT22;23928;47.562;7.508;2022-08-19T00:29:50;19.20;99.90
38118;DHT22;23928;47.562;7.508;2022-08-19T00:32:16;19.10;99.90
38118;DHT22;23928;47.562;7.508;2022-08-19T00:34:42;18.90;99.90
38118;DHT22;23928;47.562;7.508;2022-08-19T00:37:09;18.90;99.90
38118;DHT22;23928;47.562;7.508;2022-08-19T00:39:34;19.00;99.90
38118;DHT22;23928;47.562;7.508;2022-08-19T00:42:00;19.10;99.90
38118;DHT22;23928;47.562;7.508;2022-08-19T00:44:28;19.00;99.90
38118;DHT22;23928;47.562;7.508;2022-08-19T00:46:56;18.90;99.90
38118;DHT22;23928;47.562;7.508;2022-08-19T00:49:57;18.90;99.90
38118;DHT22;23928;47.562;7.508;2022-08-19T00:52:29;19.00;99.90
38118;DHT22;23928;47.562;7.508;2022-08-19T00:54:57;19.10;99.90
38118;DHT22;23928;47.562;7.508;2022-08-19T00:57:31;19.10;99.90
38118;DHT22;23928;47.562;7.508;2022-08-19T00:59:59;19.10;99.90
38118;DHT22;23928;47.562;7.508;2022-08-19T01:02:26;19.20;99.90
38118;DHT22;23928;47.562;7.508;2022-08-19T01:04:53;19.20;99.90
38118;DHT22;23928;47.562;7.508;2022-08-19T01:07:19;18.90;99.90
38118;DHT22;23928;47.562;7.508;2022-08-19T01:09:44;18.70;99.90
38118;DHT22;23928;47.562;7.508;2022-08-19T01:12:10;18.80;99.90
38118;DHT22;23928;47.562;7.508;2022-08-19T01:14:39;18.80;99.90
38118;DHT22;23928;47.562;7.508;2022-08-19T01:17:07;18.90;99.90
38118;DHT22;23928;47.562;7.508;2022-08-19T01:19:37;19.00;99.90
38118;DHT22;23928;47.562;7.508;2022-08-19T01:24:42;19.00;99.90
38118;DHT22;23928;47.562;7.508;2022-08-19T01:27:08;18.80;99.90
38118;DHT22;23928;47.562;7.508;2022-08-19T01:29:38;18.60;99.90
38118;DHT22;23928;47.562;7.508;2022-08-19T01:32:04;18.50;99.90
38118;DHT22;23928;47.562;7.508;2022-08-19T01:34:30;18.20;99.90
38118;DHT22;23928;47.562;7.508;2022-08-19T01:36:55;18.20;99.90
38118;DHT22;23928;47.562;7.508;2022-08-19T01:39:23;18.10;99.90
38118;DHT22;23928;47.562;7.508;2022-08-19T01:41:50;18.40;99.90
38118;DHT22;23928;47.562;7.508;2022-08-19T01:44:20;18.50;99.90
38118;DHT22;23928;47.562;7.508;2022-08-19T01:46:50;18.30;99.90
38118;DHT22;23928;47.562;7.508;2022-08-19T01:49:19;18.30;99.90
38118;DHT22;23928;47.562;7.508;2022-08-19T01:51:46;18.30;99.90
38118;DHT22;23928;47.562;7.508;2022-08-19T01:54:14;18.30;99.90
38118;DHT22;23928;47.562;7.508;2022-08-19T01:56:40;18.30;99.90
38118;DHT22;23928;47.562;7.508;2022-08-19T01:59:12;18.40;99.90
38118;DHT22;23928;47.562;7.508;2022-08-19T02:01:38;18.50;99.90
38118;DHT22;23928;47.562;7.508;2022-08-19T02:04:04;18.50;99.90
38118;DHT22;23928;47.562;7.508;2022-08-19T02:06:31;18.20;99.90
38118;DHT22;23928;47.562;7.508;2022-08-19T02:08:57;18.20;99.90
38118;DHT22;23928;47.562;7.508;2022-08-19T02:11:32;18.10;99.90
38118;DHT22;23928;47.562;7.508;2022-08-19T02:14:03;18.40;99.90
38118;DHT22;23928;47.562;7.508;2022-08-19T02:16:30;18.50;99.90
38118;DHT22;23928;47.562;7.508;2022-08-19T02:18:56;18.40;99.90
38118;DHT22;23928;47.562;7.508;2022-08-19T02:21:23;18.50;99.90
38118;DHT22;23928;47.562;7.508;2022-08-19T02:23:49;18.60;99.90
38118;DHT22;23928;47.562;7.508;2022-08-19T02:26:16;18.70;99.90
38118;DHT22;23928;47.562;7.508;2022-08-19T02:28:42;18.70;99.90
38118;DHT22;23928;47.562;7.508;2022-08-19T02:31:13;18.90;99.90
38118;DHT22;23928;47.562;7.508;2022-08-19T02:33:43;19.00;99.90
38118;DHT22;23928;47.562;7.508;2022-08-19T02:36:09;19.10;99.90
38118;DHT22;23928;47.562;7.508;2022-08-19T02:38:35;19.00;99.90
38118;DHT22;23928;47.562;7.508;2022-08-19T02:41:24;18.90;99.90
38118;DHT22;23928;47.562;7.508;2022-08-19T02:43:51;18.70;99.90
38118;DHT22;23928;47.562;7.508;2022-08-19T02:46:23;18.70;99.90
38118;DHT22;23928;47.562;7.508;2022-08-19T02:48:50;18.80;99.90
38118;DHT22;23928;47.562;7.508;2022-08-19T02:51:24;18.80;99.90
38118;DHT22;23928;47.562;7.508;2022-08-19T02:53:51;18.60;99.90
38118;DHT22;23928;47.562;7.508;2022-08-19T02:56:17;18.70;99.90
38118;DHT22;23928;47.562;7.508;2022-08-19T02:58:43;18.60;99.90
38118;DHT22;23928;47.562;7.508;2022-08-19T03:01:09;18.60;99.90
38118;DHT22;23928;47.562;7.508;2022-08-19T03:03:36;18.50;99.90
38118;DHT22;23928;47.562;7.508;2022-08-19T03:06:11;18.60;99.90
38118;DHT22;23928;47.562;7.508;2022-08-19T03:08:39;18.70;99.90
38118;DHT22;23928;47.562;7.508;2022-08-19T03:11:05;18.50;99.90
38118;DHT22;23928;47.562;7.508;2022-08-19T03:13:31;18.60;99.90
38118;DHT22;23928;47.562;7.508;2022-08-19T03:15:57;18.60;99.90
38118;DHT22;23928;47.562;7.508;2022-08-19T03:18:22;18.50;99.90
38118;DHT22;23928;47.562;7.508;2022-08-19T03:20:50;18.60;99.90
38118;DHT22;23928;47.562;7.508;2022-08-19T03:23:18;18.50;99.90
38118;DHT22;23928;47.562;7.508;2022-08-19T03:25:46;18.50;99.90
38118;DHT22;23928;47.562;7.508;2022-08-19T03:28:13;18.60;99.90
38118;DHT22;23928;47.562;7.508;2022-08-19T03:30:41;18.60;99.90
38118;DHT22;23928;47.562;7.508;2022-08-19T03:33:09;18.60;99.90
38118;DHT22;23928;47.562;7.508;2022-08-19T03:35:35;18.50;99.90
38118;DHT22;23928;47.562;7.508;2022-08-19T03:38:05;18.50;99.90
38118;DHT22;23928;47.562;7.508;2022-08-19T03:40:32;18.50;99.90
38118;DHT22;23928;47.562;7.508;2022-08-19T03:43:00;18.60;99.90
38118;DHT22;23928;47.562;7.508;2022-08-19T03:45:26;18.60;99.90
38118;DHT22;23928;47.562;7.508;2022-08-19T03:47:53;18.40;99.90
38118;DHT22;23928;47.562;7.508;2022-08-19T03:50:18;18.40;99.90
38118;DHT22;23928;47.562;7.508;2022-08-19T03:52:51;18.40;99.90
38118;DHT22;23928;47.562;7.508;2022-08-19T03:55:18;18.50;99.90
38118;DHT22;23928;47.562;7.508;2022-08-19T03:57:44;18.70;99.90
38118;DHT22;23928;47.562;7.508;2022-08-19T04:00:11;18.70;99.90
38118;DHT22;23928;47.562;7.508;2022-08-19T04:02:37;18.80;99.90
38118;DHT22;23928;47.562;7.508;2022-08-19T04:05:03;18.80;99.90
38118;DHT22;23928;47.562;7.508;2022-08-19T04:07:28;18.80;99.90
38118;DHT22;23928;47.562;7.508;2022-08-19T04:09:54;18.70;99.90
38118;DHT22;23928;47.562;7.508;2022-08-19T04:12:20;18.60;99.90
38118;DHT22;23928;47.562;7.508;2022-08-19T04:14:46;18.70;99.90
38118;DHT22;23928;47.562;7.508;2022-08-19T04:17:12;18.60;99.90
38118;DHT22;23928;47.562;7.508;2022-08-19T04:19:39;18.60;99.90
38118;DHT22;23928;47.562;7.508;2022-08-19T04:22:06;18.70;99.90
38118;DHT22;23928;47.562;7.508;2022-08-19T04:24:34;18.70;99.90
38118;DHT22;23928;47.562;7.508;2022-08-19T04:27:03;18.70;99.90
38118;DHT22;23928;47.562;7.508;2022-08-19T04:29:30;18.70;99.90
38118;DHT22;23928;47.562;7.508;2022-08-19T04:31:56;18.70;99.90
38118;DHT22;23928;47.562;7.508;2022-08-19T04:34:25;18.70;99.90
38118;DHT22;23928;47.562;7.508;2022-08-19T04:36:53;18.60;99.90
38118;DHT22;23928;47.562;7.508;2022-08-19T04:39:26;18.50;99.90
38118;DHT22;23928;47.562;7.508;2022-08-19T04:42:11;18.40;99.90
38118;DHT22;23928;47.562;7.508;2022-08-19T04:44:55;18.60;99.90
38118;DHT22;23928;47.562;7.508;2022-08-19T04:47:21;18.50;99.90
38118;DHT22;23928;47.562;7.508;2022-08-19T04:49:47;18.60;99.90
38118;DHT22;23928;47.562;7.508;2022-08-19T04:52:14;18.50;99.90
38118;DHT22;23928;47.562;7.508;2022-08-19T04:54:39;18.40;99.90
38118;DHT22;23928;47.562;7.508;2022-08-19T04:57:07;18.40;99.90
38118;DHT22;23928;47.562;7.508;2022-08-19T04:59:34;18.40;99.90
38118;DHT22;23928;47.562;7.508;2022-08-19T05:02:00;18.40;99.90
38118;DHT22;23928;47.562;7.508;2022-08-19T05:04:26;18.40;99.90
38118;DHT22;23928;47.562;7.508;2022-08-19T05:06:54;18.40;99.90
38118;DHT22;23928;47.562;7.508;2022-08-19T05:09:19;18.50;99.90
38118;DHT22;23928;47.562;7.508;2022-08-19T05:11:46;18.50;99.90
38118;DHT22;23928;47.562;7.508;2022-08-19T05:14:13;18.60;99.90
38118;DHT22;23928;47.562;7.508;2022-08-19T05:16:39;18.60;99.90
38118;DHT22;23928;47.562;7.508;2022-08-19T05:19:05;18.60;99.90
38118;DHT22;23928;47.562;7.508;2022-08-19T05:21:49;18.50;99.90
38118;DHT22;23928;47.562;7.508;2022-08-19T05:24:47;18.40;99.90
38118;DHT22;23928;47.562;7.508;2022-08-19T05:27:13;18.40;99.90
38118;DHT22;23928;47.562;7.508;2022-08-19T05:29:38;18.40;99.90
38118;DHT22;23928;47.562;7.508;2022-08-19T05:32:05;18.50;99.90
38118;DHT22;23928;47.562;7.508;2022-08-19T05:34:33;18.60;99.90
38118;DHT22;23928;47.562;7.508;2022-08-19T05:37:02;18.40;99.90
38118;DHT22;23928;47.562;7.508;2022-08-19T05:39:31;18.40;99.90
38118;DHT22;23928;47.562;7.508;2022-08-19T05:42:01;18.40;99.90
38118;DHT22;23928;47.562;7.508;2022-08-19T05:44:31;18.30;99.90
38118;DHT22;23928;47.562;7.508;2022-08-19T05:47:02;18.20;99.90
38118;DHT22;23928;47.562;7.508;2022-08-19T05:49:28;18.20;99.90
38118;DHT22;23928;47.562;7.508;2022-08-19T05:51:55;18.20;99.90
38118;DHT22;23928;47.562;7.508;2022-08-19T05:54:22;18.40;99.90
38118;DHT22;23928;47.562;7.508;2022-08-19T05:56:49;18.40;99.90
38118;DHT22;23928;47.562;7.508;2022-08-19T05:59:16;18.40;99.90
38118;DHT22;23928;47.562;7.508;2022-08-19T06:01:45;18.40;99.90
38118;DHT22;23928;47.562;7.508;2022-08-19T06:04:12;18.40;99.90
38118;DHT22;23928;47.562;7.508;2022-08-19T06:06:39;18.40;99.90
38118;DHT22;23928;47.562;7.508;2022-08-19T06:09:07;18.40;99.90
38118;DHT22;23928;47.562;7.508;2022-08-19T06:11:48;18.40;99.90
38118;DHT22;23928;47.562;7.508;2022-08-19T06:14:17;18.30;99.90
38118;DHT22;23928;47.562;7.508;2022-08-19T06:16:45;18.30;99.90
38118;DHT22;23928;47.562;7.508;2022-08-19T06:19:13;18.40;99.90
38118;DHT22;23928;47.562;7.508;2022-08-19T06:21:42;18.40;99.90
38118;DHT22;23928;47.562;7.508;2022-08-19T06:24:11;18.30;99.90
38118;DHT22;23928;47.562;7.508;2022-08-19T06:26:39;18.40;99.90
38118;DHT22;23928;47.562;7.508;2022-08-19T06:29:06;18.40;99.90
38118;DHT22;23928;47.562;7.508;2022-08-19T06:31:34;18.50;99.90
38118;DHT22;23928;47.562;7.508;2022-08-19T06:34:03;18.40;99.90
38118;DHT22;23928;47.562;7.508;2022-08-19T06:36:33;18.40;99.90
38118;DHT22;23928;47.562;7.508;2022-08-19T06:39:04;18.40;99.90
38118;DHT22;23928;47.562;7.508;2022-08-19T06:41:35;18.40;99.90
38118;DHT22;23928;47.562;7.508;2022-08-19T06:44:01;18.50;99.90
38118;DHT22;23928;47.562;7.508;2022-08-19T06:46:27;18.50;99.90
38118;DHT22;23928;47.562;7.508;2022-08-19T06:48:53;18.60;99.90
38118;DHT22;23928;47.562;7.508;2022-08-19T06:51:20;18.60;99.90
38118;DHT22;23928;47.562;7.508;2022-08-19T06:53:48;18.50;99.90
38118;DHT22;23928;47.562;7.508;2022-08-19T06:56:16;18.60;99.90
38118;DHT22;23928;47.562;7.508;2022-08-19T06:58:43;18.50;99.90
38118;DHT22;23928;47.562;7.508;2022-08-19T07:01:08;18.60;99.90
38118;DHT22;23928;47.562;7.508;2022-08-19T07:03:36;18.70;99.90
38118;DHT22;23928;47.562;7.508;2022-08-19T07:06:14;18.70;99.90
38118;DHT22;23928;47.562;7.508;2022-08-19T07:08:44;18.60;99.90
38118;DHT22;23928;47.562;7.508;2022-08-19T07:11:12;18.60;99.90
38118;DHT22;23928;47.562;7.508;2022-08-19T07:13:38;18.70;99.90
38118;DHT22;23928;47.562;7.508;2022-08-19T07:16:08;18.80;99.90
38118;DHT22;23928;47.562;7.508;2022-08-19T07:18:35;18.90;99.90
38118;DHT22;23928;47.562;7.508;2022-08-19T07:21:07;19.00;99.90
38118;DHT22;23928;47.562;7.508;2022-08-19T07:23:33;18.80;99.90
38118;DHT22;23928;47.562;7.508;2022-08-19T07:26:10;18.90;99.90
38118;DHT22;23928;47.562;7.508;2022-08-19T07:28:36;19.10;99.90
38118;DHT22;23928;47.562;7.508;2022-08-19T07:31:05;19.20;99.90
38118;DHT22;23928;47.562;7.508;2022-08-19T07:33:31;19.10;99.90
38118;DHT22;23928;47.562;7.508;2022-08-19T07:35:58;19.10;99.90
38118;DHT22;23928;47.562;7.508;2022-08-19T07:38:24;19.00;99.90
38118;DHT22;23928;47.562;7.508;2022-08-19T07:40:50;19.10;99.90
38118;DHT22;23928;47.562;7.508;2022-08-19T07:43:16;19.10;99.90
38118;DHT22;23928;47.562;7.508;2022-08-19T07:45:54;19.20;99.90
38118;DHT22;23928;47.562;7.508;2022-08-19T07:48:23;19.30;99.90
38118;DHT22;23928;47.562;7.508;2022-08-19T07:50:52;19.10;99.90
38118;DHT22;23928;47.562;7.508;2022-08-19T07:53:18;19.10;99.90
38118;DHT22;23928;47.562;7.508;2022-08-19T07:55:45;19.10;99.90
38118;DHT22;23928;47.562;7.508;2022-08-19T07:58:13;19.10;99.90
38118;DHT22;23928;47.562;7.508;2022-08-19T08:00:39;19.10;99.90
38118;DHT22;23928;47.562;7.508;2022-08-19T08:03:05;19.10;99.90
38118;DHT22;23928;47.562;7.508;2022-08-19T08:05:31;19.20;99.90
38118;DHT22;23928;47.562;7.508;2022-08-19T08:08:15;19.30;99.90
38118;DHT22;23928;47.562;7.508;2022-08-19T08:11:11;19.30;99.90
38118;DHT22;23928;47.562;7.508;2022-08-19T08:13:37;19.40;99.90
38118;DHT22;23928;47.562;7.508;2022-08-19T08:16:04;19.60;99.90
38118;DHT22;23928;47.562;7.508;2022-08-19T08:18:30;19.50;99.90
38118;DHT22;23928;47.562;7.508;2022-08-19T08:20:57;19.50;99.90
38118;DHT22;23928;47.562;7.508;2022-08-19T08:23:23;19.60;99.90
38118;DHT22;23928;47.562;7.508;2022-08-19T08:25:54;19.50;99.90
38118;DHT22;23928;47.562;7.508;2022-08-19T08:28:20;19.60;99.90
38118;DHT22;23928;47.562;7.508;2022-08-19T08:30:48;19.50;99.90
38118;DHT22;23928;47.562;7.508;2022-08-19T08:33:22;19.70;99.90
38118;DHT22;23928;47.562;7.508;2022-08-19T08:35:49;20.00;99.90
38118;DHT22;23928;47.562;7.508;2022-08-19T08:38:15;19.90;99.90
38118;DHT22;23928;47.562;7.508;2022-08-19T08:43:44;20.00;99.90
38118;DHT22;23928;47.562;7.508;2022-08-19T08:46:13;20.10;99.90
38118;DHT22;23928;47.562;7.508;2022-08-19T08:48:52;20.30;99.90
38118;DHT22;23928;47.562;7.508;2022-08-19T08:51:49;20.60;99.90
38118;DHT22;23928;47.562;7.508;2022-08-19T08:54:20;20.30;99.90
38118;DHT22;23928;47.562;7.508;2022-08-19T08:56:47;20.60;99.90
38118;DHT22;23928;47.562;7.508;2022-08-19T09:01:50;20.80;99.90
38118;DHT22;23928;47.562;7.508;2022-08-19T09:04:15;20.70;99.90
38118;DHT22;23928;47.562;7.508;2022-08-19T09:09:35;20.70;99.90
38118;DHT22;23928;47.562;7.508;2022-08-19T09:12:16;20.80;99.90
38118;DHT22;23928;47.562;7.508;2022-08-19T09:14:55;20.80;99.90
38118;DHT22;23928;47.562;7.508;2022-08-19T09:17:28;20.80;99.90
38118;DHT22;23928;47.562;7.508;2022-08-19T09:22:22;21.30;99.90
38118;DHT22;23928;47.562;7.508;2022-08-19T09:24:51;21.40;99.90
38118;DHT22;23928;47.562;7.508;2022-08-19T09:27:21;21.60;99.90
38118;DHT22;23928;47.562;7.508;2022-08-19T09:29:49;21.60;99.90
38118;DHT22;23928;47.562;7.508;2022-08-19T09:32:15;22.00;99.90
38118;DHT22;23928;47.562;7.508;2022-08-19T09:34:42;22.00;99.90
38118;DHT22;23928;47.562;7.508;2022-08-19T09:37:08;22.10;99.90
38118;DHT22;23928;47.562;7.508;2022-08-19T09:39:34;22.30;99.90
38118;DHT22;23928;47.562;7.508;2022-08-19T09:42:00;22.00;99.90
38118;DHT22;23928;47.562;7.508;2022-08-19T09:44:25;22.00;99.90
38118;DHT22;23928;47.562;7.508;2022-08-19T09:46:51;21.70;99.90
38118;DHT22;23928;47.562;7.508;2022-08-19T09:49:18;21.70;99.90
38118;DHT22;23928;47.562;7.508;2022-08-19T09:51:45;21.60;99.90
38118;DHT22;23928;47.562;7.508;2022-08-19T09:54:14;21.70;99.90
38118;DHT22;23928;47.562;7.508;2022-08-19T09:56:40;21.60;99.90
38118;DHT22;23928;47.562;7.508;2022-08-19T09:59:06;21.40;99.90
38118;DHT22;23928;47.562;7.508;2022-08-19T10:01:32;21.30;99.90
38118;DHT22;23928;47.562;7.508;2022-08-19T10:04:00;21.40;99.90
38118;DHT22;23928;47.562;7.508;2022-08-19T10:06:29;21.40;99.90
38118;DHT22;23928;47.562;7.508;2022-08-19T10:08:59;21.30;99.90
38118;DHT22;23928;47.562;7.508;2022-08-19T10:11:25;21.00;99.90
38118;DHT22;23928;47.562;7.508;2022-08-19T10:13:51;20.70;99.90
38118;DHT22;23928;47.562;7.508;2022-08-19T10:16:21;20.70;99.90
38118;DHT22;23928;47.562;7.508;2022-08-19T10:18:49;20.70;99.90
38118;DHT22;23928;47.562;7.508;2022-08-19T10:21:17;20.70;99.90
38118;DHT22;23928;47.562;7.508;2022-08-19T10:23:46;20.80;99.90
38118;DHT22;23928;47.562;7.508;2022-08-19T10:26:15;20.80;99.90
38118;DHT22;23928;47.562;7.508;2022-08-19T10:28:41;21.00;99.90
38118;DHT22;23928;47.562;7.508;2022-08-19T10:31:09;20.90;99.90
38118;DHT22;23928;47.562;7.508;2022-08-19T10:33:37;20.90;99.90
38118;DHT22;23928;47.562;7.508;2022-08-19T10:36:13;20.70;99.90
38118;DHT22;23928;47.562;7.508;2022-08-19T10:38:43;20.70;99.90
38118;DHT22;23928;47.562;7.508;2022-08-19T10:41:19;20.70;99.90
38118;DHT22;23928;47.562;7.508;2022-08-19T10:43:46;20.80;99.90
38118;DHT22;23928;47.562;7.508;2022-08-19T10:46:15;20.80;99.90
38118;DHT22;23928;47.562;7.508;2022-08-19T10:48:42;20.90;99.90
38118;DHT22;23928;47.562;7.508;2022-08-19T10:51:09;20.90;99.90
38118;DHT22;23928;47.562;7.508;2022-08-19T10:53:53;21.20;99.90
38118;DHT22;23928;47.562;7.508;2022-08-19T10:56:20;21.50;99.90
38118;DHT22;23928;47.562;7.508;2022-08-19T10:59:05;21.60;99.90
38118;DHT22;23928;47.562;7.508;2022-08-19T11:01:32;21.60;99.90
38118;DHT22;23928;47.562;7.508;2022-08-19T11:04:00;21.70;99.90
38118;DHT22;23928;47.562;7.508;2022-08-19T11:06:26;21.80;99.90
38118;DHT22;23928;47.562;7.508;2022-08-19T11:08:56;22.00;99.90
38118;DHT22;23928;47.562;7.508;2022-08-19T11:11:22;21.70;99.90
38118;DHT22;23928;47.562;7.508;2022-08-19T11:13:48;21.60;99.90
38118;DHT22;23928;47.562;7.508;2022-08-19T11:16:21;21.60;99.90
38118;DHT22;23928;47.562;7.508;2022-08-19T11:18:51;21.80;99.90
38118;DHT22;23928;47.562;7.508;2022-08-19T11:21:30;21.70;99.90
38118;DHT22;23928;47.562;7.508;2022-08-19T11:24:00;21.70;99.90
38118;DHT22;23928;47.562;7.508;2022-08-19T11:26:27;21.80;99.90
38118;DHT22;23928;47.562;7.508;2022-08-19T11:28:54;21.90;99.90
38118;DHT22;23928;47.562;7.508;2022-08-19T11:31:24;21.70;99.90
38118;DHT22;23928;47.562;7.508;2022-08-19T11:33:51;21.80;99.90
38118;DHT22;23928;47.562;7.508;2022-08-19T11:36:20;21.60;99.90
38118;DHT22;23928;47.562;7.508;2022-08-19T11:38:49;21.80;99.90
38118;DHT22;23928;47.562;7.508;2022-08-19T11:41:17;21.90;99.90
38118;DHT22;23928;47.562;7.508;2022-08-19T11:43:43;22.10;99.90
38118;DHT22;23928;47.562;7.508;2022-08-19T11:46:15;22.30;99.90
38118;DHT22;23928;47.562;7.508;2022-08-19T11:48:42;22.50;99.90
38118;DHT22;23928;47.562;7.508;2022-08-19T11:51:14;22.60;99.90
38118;DHT22;23928;47.562;7.508;2022-08-19T11:53:40;22.70;99.90
38118;DHT22;23928;47.562;7.508;2022-08-19T11:56:07;23.10;99.90
38118;DHT22;23928;47.562;7.508;2022-08-19T11:58:34;23.00;99.90
38118;DHT22;23928;47.562;7.508;2022-08-19T12:01:00;23.20;99.90
38118;DHT22;23928;47.562;7.508;2022-08-19T12:03:26;23.30;99.90
38118;DHT22;23928;47.562;7.508;2022-08-19T12:05:53;23.30;99.90
38118;DHT22;23928;47.562;7.508;2022-08-19T12:08:19;23.50;99.90
38118;DHT22;23928;47.562;7.508;2022-08-19T12:10:44;23.40;99.90
38118;DHT22;23928;47.562;7.508;2022-08-19T12:13:12;23.60;99.90
38118;DHT22;23928;47.562;7.508;2022-08-19T12:15:44;24.00;99.90
38118;DHT22;23928;47.562;7.508;2022-08-19T12:18:11;23.80;99.90
38118;DHT22;23928;47.562;7.508;2022-08-19T12:20:40;24.00;99.90
38118;DHT22;23928;47.562;7.508;2022-08-19T12:23:07;24.30;99.90
38118;DHT22;23928;47.562;7.508;2022-08-19T12:25:35;24.50;99.90
38118;DHT22;23928;47.562;7.508;2022-08-19T12:28:01;24.70;99.90
38118;DHT22;23928;47.562;7.508;2022-08-19T12:30:27;24.90;99.90
38118;DHT22;23928;47.562;7.508;2022-08-19T12:32:54;25.20;99.90
38118;DHT22;23928;47.562;7.508;2022-08-19T12:35:20;25.20;99.90
38118;DHT22;23928;47.562;7.508;2022-08-19T12:37:47;25.40;99.90
38118;DHT22;23928;47.562;7.508;2022-08-19T12:40:15;24.80;99.90
38118;DHT22;23928;47.562;7.508;2022-08-19T12:42:41;23.50;99.90
38118;DHT22;23928;47.562;7.508;2022-08-19T12:45:12;22.60;99.90
38118;DHT22;23928;47.562;7.508;2022-08-19T12:47:38;22.00;99.90
38118;DHT22;23928;47.562;7.508;2022-08-19T12:50:05;21.80;99.90
38118;DHT22;23928;47.562;7.508;2022-08-19T12:52:34;21.60;99.90
38118;DHT22;23928;47.562;7.508;2022-08-19T12:55:04;21.50;99.90
38118;DHT22;23928;47.562;7.508;2022-08-19T12:57:30;21.60;99.90
38118;DHT22;23928;47.562;7.508;2022-08-19T13:00:04;21.80;99.90
38118;DHT22;23928;47.562;7.508;2022-08-19T13:02:32;21.70;99.90
38118;DHT22;23928;47.562;7.508;2022-08-19T13:05:00;21.40;99.90
38118;DHT22;23928;47.562;7.508;2022-08-19T13:07:26;21.60;99.90
38118;DHT22;23928;47.562;7.508;2022-08-19T13:09:52;21.60;99.90
38118;DHT22;23928;47.562;7.508;2022-08-19T13:12:17;21.60;99.90
38118;DHT22;23928;47.562;7.508;2022-08-19T13:14:45;21.70;99.90
38118;DHT22;23928;47.562;7.508;2022-08-19T13:17:16;21.80;99.90
38118;DHT22;23928;47.562;7.508;2022-08-19T13:19:41;21.90;99.90
38118;DHT22;23928;47.562;7.508;2022-08-19T13:22:07;22.10;99.90
38118;DHT22;23928;47.562;7.508;2022-08-19T13:24:33;22.20;99.90
38118;DHT22;23928;47.562;7.508;2022-08-19T13:27:00;22.30;99.90
38118;DHT22;23928;47.562;7.508;2022-08-19T13:29:25;22.30;99.90
38118;DHT22;23928;47.562;7.508;2022-08-19T13:32:10;22.20;99.90
38118;DHT22;23928;47.562;7.508;2022-08-19T13:34:54;22.20;99.90
38118;DHT22;23928;47.562;7.508;2022-08-19T13:37:19;22.20;99.90
38118;DHT22;23928;47.562;7.508;2022-08-19T13:40:05;22.40;99.90
38118;DHT22;23928;47.562;7.508;2022-08-19T13:42:31;22.40;99.90
38118;DHT22;23928;47.562;7.508;2022-08-19T13:44:58;22.10;99.90
38118;DHT22;23928;47.562;7.508;2022-08-19T13:47:24;22.10;99.90
38118;DHT22;23928;47.562;7.508;2022-08-19T13:49:49;22.20;99.90
38118;DHT22;23928;47.562;7.508;2022-08-19T13:52:15;22.20;99.90
38118;DHT22;23928;47.562;7.508;2022-08-19T13:54:41;22.30;99.90
38118;DHT22;23928;47.562;7.508;2022-08-19T13:57:06;22.60;99.90
38118;DHT22;23928;47.562;7.508;2022-08-19T13:59:32;22.60;99.90
38118;DHT22;23928;47.562;7.508;2022-08-19T14:01:59;22.60;99.90
38118;DHT22;23928;47.562;7.508;2022-08-19T14:04:25;22.80;99.90
38118;DHT22;23928;47.562;7.508;2022-08-19T14:06:51;23.00;99.90
38118;DHT22;23928;47.562;7.508;2022-08-19T14:09:16;23.00;99.90
38118;DHT22;23928;47.562;7.508;2022-08-19T14:11:42;23.00;99.90
38118;DHT22;23928;47.562;7.508;2022-08-19T14:14:08;22.90;99.90
38118;DHT22;23928;47.562;7.508;2022-08-19T14:16:33;22.90;99.90
38118;DHT22;23928;47.562;7.508;2022-08-19T14:18:59;22.90;99.90
38118;DHT22;23928;47.562;7.508;2022-08-19T14:21:25;22.50;99.90
38118;DHT22;23928;47.562;7.508;2022-08-19T14:23:51;22.30;99.90
38118;DHT22;23928;47.562;7.508;2022-08-19T14:26:18;22.20;99.90
38118;DHT22;23928;47.562;7.508;2022-08-19T14:28:45;22.10;99.90
38118;DHT22;23928;47.562;7.508;2022-08-19T14:31:12;22.10;99.90
38118;DHT22;23928;47.562;7.508;2022-08-19T14:33:41;22.00;99.90
38118;DHT22;23928;47.562;7.508;2022-08-19T14:36:07;21.80;99.90
38118;DHT22;23928;47.562;7.508;2022-08-19T14:38:33;21.80;99.90
38118;DHT22;23928;47.562;7.508;2022-08-19T14:41:15;21.80;99.90
38118;DHT22;23928;47.562;7.508;2022-08-19T14:43:43;21.60;99.90
38118;DHT22;23928;47.562;7.508;2022-08-19T14:46:11;21.60;99.90
38118;DHT22;23928;47.562;7.508;2022-08-19T14:48:37;21.60;99.90
38118;DHT22;23928;47.562;7.508;2022-08-19T14:51:05;21.60;99.90
38118;DHT22;23928;47.562;7.508;2022-08-19T14:53:31;21.60;99.90
38118;DHT22;23928;47.562;7.508;2022-08-19T14:55:59;21.60;99.90
38118;DHT22;23928;47.562;7.508;2022-08-19T14:58:24;21.60;99.90
38118;DHT22;23928;47.562;7.508;2022-08-19T15:00:50;21.60;99.90
38118;DHT22;23928;47.562;7.508;2022-08-19T15:03:16;21.50;99.90
38118;DHT22;23928;47.562;7.508;2022-08-19T15:05:41;21.40;99.90
38118;DHT22;23928;47.562;7.508;2022-08-19T15:08:07;21.40;99.90
38118;DHT22;23928;47.562;7.508;2022-08-19T15:10:33;21.20;99.90
38118;DHT22;23928;47.562;7.508;2022-08-19T15:12:58;21.10;99.90
38118;DHT22;23928;47.562;7.508;2022-08-19T15:15:25;21.10;99.90
38118;DHT22;23928;47.562;7.508;2022-08-19T15:17:50;21.10;99.90
38118;DHT22;23928;47.562;7.508;2022-08-19T15:20:18;21.00;99.90
38118;DHT22;23928;47.562;7.508;2022-08-19T15:22:45;21.00;99.90
38118;DHT22;23928;47.562;7.508;2022-08-19T15:25:13;21.20;99.90
38118;DHT22;23928;47.562;7.508;2022-08-19T15:27:40;21.20;99.90
38118;DHT22;23928;47.562;7.508;2022-08-19T15:30:07;21.20;99.90
38118;DHT22;23928;47.562;7.508;2022-08-19T15:32:33;21.20;99.90
38118;DHT22;23928;47.562;7.508;2022-08-19T15:35:00;21.00;99.90
38118;DHT22;23928;47.562;7.508;2022-08-19T15:37:28;20.80;99.90
38118;DHT22;23928;47.562;7.508;2022-08-19T15:39:54;21.00;99.90
38118;DHT22;23928;47.562;7.508;2022-08-19T15:42:20;20.90;99.90
38118;DHT22;23928;47.562;7.508;2022-08-19T15:44:46;20.90;99.90
38118;DHT22;23928;47.562;7.508;2022-08-19T15:47:13;20.80;99.90
38118;DHT22;23928;47.562;7.508;2022-08-19T15:49:39;20.80;99.90